Strona główna
METAR-TAF:

METAR-TAF

Lotnisko :

Santa Maria di Leuca

Castrignano del Capo, Włochy

Szerokość geograficzna: 39-49N, Długość geograficzna: 018-21E, wysokość: 104 m

Aktualna obserwacja pogody

Raport powstał 26 minut temu, godzina 14:55 UTC
Wiatr 4 kt od północno-północny zachód
Temperatura 12°C
Wilgotność 76%
Ciśnienie 1012 hPa
Widzialność 10 km lub więcej
Rozproszone chmury na wysokości 1200 ft, Cumulusy wypiętrznone.

METAR: LIBY 281455Z 33004KT 9999 SCT012TCU 12/08 Q1012 RMK BKN BKN080 QUK 1 QUL 1 W VIS MAR 15 KM VIS MIN 9999

czas: 16:21 (15:21 UTC)


TAF: brakujący

Obserwacja i prognoza pogody dla ponad 4000 lotnisk (raport METAR i TAF).

Dostępne stacje oznaczono żółtymi i czerwonymi punktami na mapie.

Najedź kursorem aby zobaczyć nazwę stacji.

Kliknij aby zobaczyć obserwacje i prognozy pogody.

Aby zmienić mapę: kliknij na zielony przycisk z czarnym krzyżykiem, aby powiększyć; na zielony przycisk z myślnikiem, aby pomniejszyć; na zielone strzałki, aby przejść do map sąsiednich.


METAR-TAF: